< < Back
Terminal Aerodrome Forecast


Current Version              Previous Versions:   1  2  3  4  5  6  7  8  9  

Terminal Aerodrome Forecast

952
FTUS42 KTAE 240500
TAFVLD
TAF
KVLD 240520Z 2406/2506 00000KT P6SM BKN200
     FM241500 05007KT P6SM SCT200
     FM242300 00000KT P6SM SKC=

Latest METAR

761
SAUS70 KWBC 240800 RRD
MTRVLD
METAR KVLD 240753Z AUTO 00000KT 7SM CLR 08/06 A3002 RMK AO2 SLP174
T00780061


USA.gov is the U.S. government's official web portal to all federal, state and local government web resources and services.